sensor_id;sensor_type;location;lat;lon;timestamp;P1;durP1;ratioP1;P2;durP2;ratioP2
69912;SDS011;57198;52.082;5.108;2023-11-18T00:01:07;32.13;;;19.40;;
69912;SDS011;57198;52.082;5.108;2023-11-18T00:03:35;29.38;;;18.00;;
69912;SDS011;57198;52.082;5.108;2023-11-18T00:06:03;27.27;;;16.90;;
69912;SDS011;57198;52.082;5.108;2023-11-18T00:08:30;25.70;;;18.40;;
69912;SDS011;57198;52.082;5.108;2023-11-18T00:11:02;25.88;;;18.08;;
69912;SDS011;57198;52.082;5.108;2023-11-18T00:13:33;25.05;;;17.60;;
69912;SDS011;57198;52.082;5.108;2023-11-18T00:16:08;26.88;;;17.35;;
69912;SDS011;57198;52.082;5.108;2023-11-18T00:18:41;32.40;;;17.70;;
69912;SDS011;57198;52.082;5.108;2023-11-18T00:21:09;22.20;;;16.85;;
69912;SDS011;57198;52.082;5.108;2023-11-18T00:23:39;27.98;;;17.83;;
69912;SDS011;57198;52.082;5.108;2023-11-18T00:26:09;27.25;;;18.33;;
69912;SDS011;57198;52.082;5.108;2023-11-18T00:28:42;23.73;;;16.48;;
69912;SDS011;57198;52.082;5.108;2023-11-18T00:31:11;25.92;;;16.65;;
69912;SDS011;57198;52.082;5.108;2023-11-18T00:33:41;25.83;;;17.08;;
69912;SDS011;57198;52.082;5.108;2023-11-18T00:36:11;28.63;;;16.60;;
69912;SDS011;57198;52.082;5.108;2023-11-18T00:38:44;22.60;;;16.65;;
69912;SDS011;57198;52.082;5.108;2023-11-18T00:41:14;23.20;;;15.98;;
69912;SDS011;57198;52.082;5.108;2023-11-18T00:43:44;28.10;;;16.95;;
69912;SDS011;57198;52.082;5.108;2023-11-18T00:46:20;27.83;;;17.15;;
69912;SDS011;57198;52.082;5.108;2023-11-18T00:48:56;27.35;;;17.00;;
69912;SDS011;57198;52.082;5.108;2023-11-18T00:51:29;25.05;;;16.40;;
69912;SDS011;57198;52.082;5.108;2023-11-18T00:54:10;32.53;;;17.08;;
69912;SDS011;57198;52.082;5.108;2023-11-18T00:56:50;23.02;;;15.90;;
69912;SDS011;57198;52.082;5.108;2023-11-18T00:59:18;28.88;;;17.38;;
69912;SDS011;57198;52.082;5.108;2023-11-18T01:01:46;23.85;;;15.88;;
69912;SDS011;57198;52.082;5.108;2023-11-18T01:04:16;27.50;;;16.20;;
69912;SDS011;57198;52.082;5.108;2023-11-18T01:06:45;27.30;;;16.50;;
69912;SDS011;57198;52.082;5.108;2023-11-18T01:09:18;26.63;;;16.13;;
69912;SDS011;57198;52.082;5.108;2023-11-18T01:12:00;29.50;;;17.38;;
69912;SDS011;57198;52.082;5.108;2023-11-18T01:14:38;35.65;;;18.48;;
69912;SDS011;57198;52.082;5.108;2023-11-18T01:17:09;25.95;;;16.65;;
69912;SDS011;57198;52.082;5.108;2023-11-18T01:19:36;28.33;;;17.63;;
69912;SDS011;57198;52.082;5.108;2023-11-18T01:22:04;27.63;;;16.48;;
69912;SDS011;57198;52.082;5.108;2023-11-18T01:24:32;26.75;;;17.30;;
69912;SDS011;57198;52.082;5.108;2023-11-18T01:27:00;25.42;;;16.67;;
69912;SDS011;57198;52.082;5.108;2023-11-18T01:29:28;24.15;;;16.88;;
69912;SDS011;57198;52.082;5.108;2023-11-18T01:31:55;26.40;;;16.42;;
69912;SDS011;57198;52.082;5.108;2023-11-18T01:34:23;23.75;;;15.57;;
69912;SDS011;57198;52.082;5.108;2023-11-18T01:36:52;23.58;;;15.32;;
69912;SDS011;57198;52.082;5.108;2023-11-18T01:39:19;25.52;;;16.27;;
69912;SDS011;57198;52.082;5.108;2023-11-18T01:41:47;24.52;;;16.27;;
69912;SDS011;57198;52.082;5.108;2023-11-18T01:44:16;26.95;;;16.15;;
69912;SDS011;57198;52.082;5.108;2023-11-18T01:46:46;24.70;;;15.00;;
69912;SDS011;57198;52.082;5.108;2023-11-18T01:49:14;24.23;;;15.82;;
69912;SDS011;57198;52.082;5.108;2023-11-18T01:51:42;25.50;;;15.15;;
69912;SDS011;57198;52.082;5.108;2023-11-18T01:54:10;22.80;;;15.43;;
69912;SDS011;57198;52.082;5.108;2023-11-18T01:56:43;25.55;;;15.73;;
69912;SDS011;57198;52.082;5.108;2023-11-18T01:59:11;24.60;;;16.13;;
69912;SDS011;57198;52.082;5.108;2023-11-18T02:01:48;24.58;;;15.65;;
69912;SDS011;57198;52.082;5.108;2023-11-18T02:04:16;22.88;;;14.88;;
69912;SDS011;57198;52.082;5.108;2023-11-18T02:06:50;28.00;;;15.45;;
69912;SDS011;57198;52.082;5.108;2023-11-18T02:09:18;24.02;;;15.95;;
69912;SDS011;57198;52.082;5.108;2023-11-18T02:14:39;22.88;;;15.85;;
69912;SDS011;57198;52.082;5.108;2023-11-18T02:17:08;25.85;;;15.95;;
69912;SDS011;57198;52.082;5.108;2023-11-18T02:19:37;28.02;;;15.20;;
69912;SDS011;57198;52.082;5.108;2023-11-18T02:22:08;29.45;;;15.32;;
69912;SDS011;57198;52.082;5.108;2023-11-18T02:24:40;24.63;;;15.73;;
69912;SDS011;57198;52.082;5.108;2023-11-18T02:27:16;23.85;;;15.27;;
69912;SDS011;57198;52.082;5.108;2023-11-18T02:29:48;26.50;;;15.48;;
69912;SDS011;57198;52.082;5.108;2023-11-18T02:32:25;22.88;;;13.95;;
69912;SDS011;57198;52.082;5.108;2023-11-18T02:35:09;25.17;;;15.45;;
69912;SDS011;57198;52.082;5.108;2023-11-18T02:37:46;25.65;;;15.80;;
69912;SDS011;57198;52.082;5.108;2023-11-18T02:40:17;22.63;;;14.55;;
69912;SDS011;57198;52.082;5.108;2023-11-18T02:42:49;22.27;;;15.20;;
69912;SDS011;57198;52.082;5.108;2023-11-18T02:45:22;28.23;;;15.82;;
69912;SDS011;57198;52.082;5.108;2023-11-18T02:47:52;25.35;;;15.73;;
69912;SDS011;57198;52.082;5.108;2023-11-18T02:50:27;25.25;;;16.25;;
69912;SDS011;57198;52.082;5.108;2023-11-18T02:53:00;21.40;;;15.00;;
69912;SDS011;57198;52.082;5.108;2023-11-18T02:55:30;25.63;;;16.00;;
69912;SDS011;57198;52.082;5.108;2023-11-18T02:58:01;23.92;;;16.00;;
69912;SDS011;57198;52.082;5.108;2023-11-18T03:00:33;25.13;;;15.82;;
69912;SDS011;57198;52.082;5.108;2023-11-18T03:03:04;26.42;;;15.90;;
69912;SDS011;57198;52.082;5.108;2023-11-18T03:05:38;27.10;;;17.10;;
69912;SDS011;57198;52.082;5.108;2023-11-18T03:08:09;22.08;;;15.75;;
69912;SDS011;57198;52.082;5.108;2023-11-18T03:10:41;26.48;;;16.50;;
69912;SDS011;57198;52.082;5.108;2023-11-18T03:13:12;28.15;;;16.65;;
69912;SDS011;57198;52.082;5.108;2023-11-18T03:15:43;24.05;;;16.95;;
69912;SDS011;57198;52.082;5.108;2023-11-18T03:18:12;25.60;;;16.80;;
69912;SDS011;57198;52.082;5.108;2023-11-18T03:20:43;23.63;;;16.02;;
69912;SDS011;57198;52.082;5.108;2023-11-18T03:23:13;23.58;;;15.63;;
69912;SDS011;57198;52.082;5.108;2023-11-18T03:25:44;23.17;;;16.88;;
69912;SDS011;57198;52.082;5.108;2023-11-18T03:28:19;23.83;;;16.92;;
69912;SDS011;57198;52.082;5.108;2023-11-18T03:30:58;22.92;;;16.05;;
69912;SDS011;57198;52.082;5.108;2023-11-18T03:33:31;26.50;;;16.40;;
69912;SDS011;57198;52.082;5.108;2023-11-18T03:36:16;24.70;;;16.67;;
69912;SDS011;57198;52.082;5.108;2023-11-18T03:38:55;26.40;;;16.45;;
69912;SDS011;57198;52.082;5.108;2023-11-18T03:41:24;27.98;;;17.35;;
69912;SDS011;57198;52.082;5.108;2023-11-18T03:44:04;29.05;;;17.42;;
69912;SDS011;57198;52.082;5.108;2023-11-18T03:47:01;25.50;;;16.38;;
69912;SDS011;57198;52.082;5.108;2023-11-18T03:49:32;28.27;;;17.40;;
69912;SDS011;57198;52.082;5.108;2023-11-18T03:52:05;28.88;;;16.83;;
69912;SDS011;57198;52.082;5.108;2023-11-18T03:54:34;26.73;;;17.25;;
69912;SDS011;57198;52.082;5.108;2023-11-18T03:57:26;27.70;;;17.00;;
69912;SDS011;57198;52.082;5.108;2023-11-18T03:59:57;28.83;;;17.58;;
69912;SDS011;57198;52.082;5.108;2023-11-18T04:02:25;23.70;;;17.15;;
69912;SDS011;57198;52.082;5.108;2023-11-18T04:05:00;28.17;;;18.10;;
69912;SDS011;57198;52.082;5.108;2023-11-18T04:07:29;26.40;;;17.63;;
69912;SDS011;57198;52.082;5.108;2023-11-18T04:10:11;28.95;;;18.05;;
69912;SDS011;57198;52.082;5.108;2023-11-18T04:12:40;26.02;;;17.40;;
69912;SDS011;57198;52.082;5.108;2023-11-18T04:15:16;25.13;;;15.98;;
69912;SDS011;57198;52.082;5.108;2023-11-18T04:17:44;26.02;;;16.38;;
69912;SDS011;57198;52.082;5.108;2023-11-18T04:20:15;24.33;;;16.08;;
69912;SDS011;57198;52.082;5.108;2023-11-18T04:22:46;23.35;;;15.05;;
69912;SDS011;57198;52.082;5.108;2023-11-18T04:25:17;21.23;;;16.13;;
69912;SDS011;57198;52.082;5.108;2023-11-18T04:27:47;21.85;;;14.40;;
69912;SDS011;57198;52.082;5.108;2023-11-18T04:30:17;26.67;;;16.48;;
69912;SDS011;57198;52.082;5.108;2023-11-18T04:32:49;25.95;;;16.70;;
69912;SDS011;57198;52.082;5.108;2023-11-18T04:35:19;23.58;;;17.17;;
69912;SDS011;57198;52.082;5.108;2023-11-18T04:37:52;24.15;;;16.20;;
69912;SDS011;57198;52.082;5.108;2023-11-18T04:40:23;23.63;;;16.73;;
69912;SDS011;57198;52.082;5.108;2023-11-18T04:42:57;26.08;;;16.23;;
69912;SDS011;57198;52.082;5.108;2023-11-18T04:45:27;24.30;;;16.15;;
69912;SDS011;57198;52.082;5.108;2023-11-18T04:47:56;27.42;;;16.83;;
69912;SDS011;57198;52.082;5.108;2023-11-18T04:50:29;24.63;;;15.98;;
69912;SDS011;57198;52.082;5.108;2023-11-18T04:52:58;25.67;;;16.42;;
69912;SDS011;57198;52.082;5.108;2023-11-18T04:55:27;21.88;;;15.40;;
69912;SDS011;57198;52.082;5.108;2023-11-18T04:58:00;23.33;;;15.63;;
69912;SDS011;57198;52.082;5.108;2023-11-18T05:00:30;24.10;;;15.68;;
69912;SDS011;57198;52.082;5.108;2023-11-18T05:03:00;24.08;;;15.45;;
69912;SDS011;57198;52.082;5.108;2023-11-18T05:05:29;23.75;;;14.77;;
69912;SDS011;57198;52.082;5.108;2023-11-18T05:08:00;29.42;;;15.68;;
69912;SDS011;57198;52.082;5.108;2023-11-18T05:10:30;23.92;;;14.90;;
69912;SDS011;57198;52.082;5.108;2023-11-18T05:13:00;20.67;;;13.95;;
69912;SDS011;57198;52.082;5.108;2023-11-18T05:15:30;20.92;;;13.88;;
69912;SDS011;57198;52.082;5.108;2023-11-18T05:18:02;22.20;;;14.65;;
69912;SDS011;57198;52.082;5.108;2023-11-18T05:20:33;22.55;;;14.30;;
69912;SDS011;57198;52.082;5.108;2023-11-18T05:23:07;23.05;;;14.45;;
69912;SDS011;57198;52.082;5.108;2023-11-18T05:25:42;24.17;;;13.82;;
69912;SDS011;57198;52.082;5.108;2023-11-18T05:28:13;21.73;;;14.30;;
69912;SDS011;57198;52.082;5.108;2023-11-18T05:30:43;24.23;;;14.02;;
69912;SDS011;57198;52.082;5.108;2023-11-18T05:33:11;23.02;;;15.20;;
69912;SDS011;57198;52.082;5.108;2023-11-18T05:35:45;25.23;;;14.10;;
69912;SDS011;57198;52.082;5.108;2023-11-18T05:38:18;22.52;;;14.13;;
69912;SDS011;57198;52.082;5.108;2023-11-18T05:40:49;25.48;;;14.52;;
69912;SDS011;57198;52.082;5.108;2023-11-18T05:43:26;26.00;;;14.40;;
69912;SDS011;57198;52.082;5.108;2023-11-18T05:45:59;23.08;;;13.45;;
69912;SDS011;57198;52.082;5.108;2023-11-18T05:48:48;22.33;;;14.07;;
69912;SDS011;57198;52.082;5.108;2023-11-18T05:51:24;23.83;;;13.45;;
69912;SDS011;57198;52.082;5.108;2023-11-18T05:53:53;24.05;;;14.25;;
69912;SDS011;57198;52.082;5.108;2023-11-18T05:56:24;23.67;;;14.10;;
69912;SDS011;57198;52.082;5.108;2023-11-18T05:58:54;23.30;;;13.68;;
69912;SDS011;57198;52.082;5.108;2023-11-18T06:01:25;19.50;;;13.05;;
69912;SDS011;57198;52.082;5.108;2023-11-18T06:03:57;26.92;;;13.45;;
69912;SDS011;57198;52.082;5.108;2023-11-18T06:06:27;28.45;;;15.30;;
69912;SDS011;57198;52.082;5.108;2023-11-18T06:08:59;27.17;;;14.90;;
69912;SDS011;57198;52.082;5.108;2023-11-18T06:11:35;25.75;;;15.00;;
69912;SDS011;57198;52.082;5.108;2023-11-18T06:14:09;26.80;;;15.73;;
69912;SDS011;57198;52.082;5.108;2023-11-18T06:16:42;29.00;;;14.93;;
69912;SDS011;57198;52.082;5.108;2023-11-18T06:19:12;28.00;;;15.32;;
69912;SDS011;57198;52.082;5.108;2023-11-18T06:21:42;27.63;;;15.32;;
69912;SDS011;57198;52.082;5.108;2023-11-18T06:24:12;27.05;;;15.85;;
69912;SDS011;57198;52.082;5.108;2023-11-18T06:26:44;26.85;;;15.40;;
69912;SDS011;57198;52.082;5.108;2023-11-18T06:29:15;25.70;;;15.18;;
69912;SDS011;57198;52.082;5.108;2023-11-18T06:31:44;24.40;;;15.13;;
69912;SDS011;57198;52.082;5.108;2023-11-18T06:34:23;28.33;;;16.15;;
69912;SDS011;57198;52.082;5.108;2023-11-18T06:36:54;29.05;;;17.13;;
69912;SDS011;57198;52.082;5.108;2023-11-18T06:39:30;29.55;;;15.23;;
69912;SDS011;57198;52.082;5.108;2023-11-18T06:42:09;22.67;;;12.68;;
69912;SDS011;57198;52.082;5.108;2023-11-18T06:44:38;17.23;;;11.57;;
69912;SDS011;57198;52.082;5.108;2023-11-18T06:47:12;27.80;;;15.85;;
69912;SDS011;57198;52.082;5.108;2023-11-18T06:49:42;26.38;;;15.73;;
69912;SDS011;57198;52.082;5.108;2023-11-18T06:52:12;26.13;;;14.52;;
69912;SDS011;57198;52.082;5.108;2023-11-18T06:54:42;29.05;;;15.77;;
69912;SDS011;57198;52.082;5.108;2023-11-18T06:57:13;26.88;;;15.38;;
69912;SDS011;57198;52.082;5.108;2023-11-18T06:59:41;26.60;;;16.58;;
69912;SDS011;57198;52.082;5.108;2023-11-18T07:02:09;22.42;;;14.40;;
69912;SDS011;57198;52.082;5.108;2023-11-18T07:04:36;30.15;;;15.60;;
69912;SDS011;57198;52.082;5.108;2023-11-18T07:07:05;26.90;;;16.08;;
69912;SDS011;57198;52.082;5.108;2023-11-18T07:09:35;23.50;;;13.98;;
69912;SDS011;57198;52.082;5.108;2023-11-18T07:12:03;24.95;;;14.73;;
69912;SDS011;57198;52.082;5.108;2023-11-18T07:14:30;21.80;;;13.77;;
69912;SDS011;57198;52.082;5.108;2023-11-18T07:16:58;23.75;;;15.07;;
69912;SDS011;57198;52.082;5.108;2023-11-18T07:19:25;21.63;;;13.80;;
69912;SDS011;57198;52.082;5.108;2023-11-18T07:21:53;24.05;;;15.07;;
69912;SDS011;57198;52.082;5.108;2023-11-18T07:24:21;24.73;;;13.98;;
69912;SDS011;57198;52.082;5.108;2023-11-18T07:26:48;24.08;;;13.82;;
69912;SDS011;57198;52.082;5.108;2023-11-18T07:29:17;22.83;;;14.77;;
69912;SDS011;57198;52.082;5.108;2023-11-18T07:31:45;24.00;;;15.20;;
69912;SDS011;57198;52.082;5.108;2023-11-18T07:34:12;23.42;;;14.30;;
69912;SDS011;57198;52.082;5.108;2023-11-18T07:36:40;26.35;;;14.30;;
69912;SDS011;57198;52.082;5.108;2023-11-18T07:39:08;22.10;;;14.23;;
69912;SDS011;57198;52.082;5.108;2023-11-18T07:41:42;19.90;;;13.77;;
69912;SDS011;57198;52.082;5.108;2023-11-18T07:44:10;20.58;;;13.73;;
69912;SDS011;57198;52.082;5.108;2023-11-18T07:46:39;22.42;;;13.38;;
69912;SDS011;57198;52.082;5.108;2023-11-18T07:49:09;25.75;;;13.82;;
69912;SDS011;57198;52.082;5.108;2023-11-18T07:51:38;21.83;;;13.30;;
69912;SDS011;57198;52.082;5.108;2023-11-18T07:54:09;20.73;;;13.38;;
69912;SDS011;57198;52.082;5.108;2023-11-18T07:56:37;22.30;;;14.65;;
69912;SDS011;57198;52.082;5.108;2023-11-18T07:59:06;20.73;;;13.77;;
69912;SDS011;57198;52.082;5.108;2023-11-18T08:01:35;24.10;;;14.23;;
69912;SDS011;57198;52.082;5.108;2023-11-18T08:04:04;19.90;;;13.85;;
69912;SDS011;57198;52.082;5.108;2023-11-18T08:06:34;22.73;;;13.80;;
69912;SDS011;57198;52.082;5.108;2023-11-18T08:09:02;26.90;;;14.30;;
69912;SDS011;57198;52.082;5.108;2023-11-18T08:11:31;20.48;;;12.27;;
69912;SDS011;57198;52.082;5.108;2023-11-18T08:14:00;18.63;;;11.77;;
69912;SDS011;57198;52.082;5.108;2023-11-18T08:16:30;18.70;;;11.40;;
69912;SDS011;57198;52.082;5.108;2023-11-18T08:19:00;24.35;;;13.25;;
69912;SDS011;57198;52.082;5.108;2023-11-18T08:21:29;16.35;;;11.27;;
69912;SDS011;57198;52.082;5.108;2023-11-18T08:23:57;19.05;;;12.98;;
69912;SDS011;57198;52.082;5.108;2023-11-18T08:26:26;20.67;;;11.20;;
69912;SDS011;57198;52.082;5.108;2023-11-18T08:28:55;14.93;;;10.35;;
69912;SDS011;57198;52.082;5.108;2023-11-18T08:31:24;19.92;;;11.48;;
69912;SDS011;57198;52.082;5.108;2023-11-18T08:33:52;20.45;;;11.25;;
69912;SDS011;57198;52.082;5.108;2023-11-18T08:36:21;14.98;;;9.15;;
69912;SDS011;57198;52.082;5.108;2023-11-18T08:38:53;17.58;;;11.98;;
69912;SDS011;57198;52.082;5.108;2023-11-18T08:41:23;17.60;;;11.48;;
69912;SDS011;57198;52.082;5.108;2023-11-18T08:43:51;20.30;;;11.35;;
69912;SDS011;57198;52.082;5.108;2023-11-18T08:46:20;23.58;;;11.25;;
69912;SDS011;57198;52.082;5.108;2023-11-18T08:48:49;12.45;;;8.73;;
69912;SDS011;57198;52.082;5.108;2023-11-18T08:51:16;14.65;;;9.38;;
69912;SDS011;57198;52.082;5.108;2023-11-18T08:53:44;22.67;;;11.38;;
69912;SDS011;57198;52.082;5.108;2023-11-18T08:56:12;13.50;;;9.15;;
69912;SDS011;57198;52.082;5.108;2023-11-18T08:58:44;16.17;;;8.95;;
69912;SDS011;57198;52.082;5.108;2023-11-18T09:01:12;19.10;;;10.38;;
69912;SDS011;57198;52.082;5.108;2023-11-18T09:03:41;18.42;;;9.68;;
69912;SDS011;57198;52.082;5.108;2023-11-18T09:06:19;17.27;;;10.27;;
69912;SDS011;57198;52.082;5.108;2023-11-18T09:08:55;15.88;;;9.70;;
69912;SDS011;57198;52.082;5.108;2023-11-18T09:11:25;14.25;;;9.75;;
69912;SDS011;57198;52.082;5.108;2023-11-18T09:13:56;16.17;;;9.10;;
69912;SDS011;57198;52.082;5.108;2023-11-18T09:16:28;13.30;;;7.97;;
69912;SDS011;57198;52.082;5.108;2023-11-18T09:18:57;14.77;;;8.43;;
69912;SDS011;57198;52.082;5.108;2023-11-18T09:21:26;16.40;;;8.63;;
69912;SDS011;57198;52.082;5.108;2023-11-18T09:23:56;10.52;;;6.53;;
69912;SDS011;57198;52.082;5.108;2023-11-18T09:26:25;13.57;;;8.25;;
69912;SDS011;57198;52.082;5.108;2023-11-18T09:28:57;11.27;;;7.28;;
69912;SDS011;57198;52.082;5.108;2023-11-18T09:31:29;12.55;;;8.40;;
69912;SDS011;57198;52.082;5.108;2023-11-18T09:33:58;16.30;;;7.75;;
69912;SDS011;57198;52.082;5.108;2023-11-18T09:36:27;12.48;;;5.95;;
69912;SDS011;57198;52.082;5.108;2023-11-18T09:38:56;11.38;;;8.10;;
69912;SDS011;57198;52.082;5.108;2023-11-18T09:41:24;11.55;;;7.35;;
69912;SDS011;57198;52.082;5.108;2023-11-18T09:43:54;14.68;;;7.43;;
69912;SDS011;57198;52.082;5.108;2023-11-18T09:46:27;13.93;;;7.72;;
69912;SDS011;57198;52.082;5.108;2023-11-18T09:51:42;9.15;;;6.88;;
69912;SDS011;57198;52.082;5.108;2023-11-18T09:54:23;13.57;;;8.07;;
69912;SDS011;57198;52.082;5.108;2023-11-18T09:59:44;10.88;;;6.97;;
69912;SDS011;57198;52.082;5.108;2023-11-18T10:02:14;11.02;;;6.78;;
69912;SDS011;57198;52.082;5.108;2023-11-18T10:04:45;10.15;;;7.00;;
69912;SDS011;57198;52.082;5.108;2023-11-18T10:07:16;8.45;;;5.38;;
69912;SDS011;57198;52.082;5.108;2023-11-18T10:09:45;10.43;;;5.20;;
69912;SDS011;57198;52.082;5.108;2023-11-18T10:12:15;9.52;;;6.00;;
69912;SDS011;57198;52.082;5.108;2023-11-18T10:14:50;6.70;;;4.82;;
69912;SDS011;57198;52.082;5.108;2023-11-18T10:17:18;10.00;;;5.68;;
69912;SDS011;57198;52.082;5.108;2023-11-18T10:22:22;10.60;;;5.20;;
69912;SDS011;57198;52.082;5.108;2023-11-18T10:24:50;12.48;;;5.35;;
69912;SDS011;57198;52.082;5.108;2023-11-18T10:27:24;7.18;;;4.43;;
69912;SDS011;57198;52.082;5.108;2023-11-18T10:30:02;10.98;;;4.70;;
69912;SDS011;57198;52.082;5.108;2023-11-18T10:32:30;9.05;;;4.35;;
69912;SDS011;57198;52.082;5.108;2023-11-18T10:35:03;8.77;;;4.20;;
69912;SDS011;57198;52.082;5.108;2023-11-18T10:37:36;8.27;;;3.38;;
69912;SDS011;57198;52.082;5.108;2023-11-18T10:40:10;11.52;;;4.13;;
69912;SDS011;57198;52.082;5.108;2023-11-18T10:42:40;9.90;;;4.75;;
69912;SDS011;57198;52.082;5.108;2023-11-18T10:45:11;6.68;;;3.85;;
69912;SDS011;57198;52.082;5.108;2023-11-18T10:47:42;7.45;;;4.38;;
69912;SDS011;57198;52.082;5.108;2023-11-18T10:50:09;7.15;;;3.83;;
69912;SDS011;57198;52.082;5.108;2023-11-18T10:52:37;6.47;;;4.00;;
69912;SDS011;57198;52.082;5.108;2023-11-18T10:55:08;7.57;;;3.60;;
69912;SDS011;57198;52.082;5.108;2023-11-18T10:57:40;3.92;;;3.55;;
69912;SDS011;57198;52.082;5.108;2023-11-18T11:00:09;7.85;;;3.85;;
69912;SDS011;57198;52.082;5.108;2023-11-18T11:02:41;9.82;;;4.07;;
69912;SDS011;57198;52.082;5.108;2023-11-18T11:05:08;8.05;;;4.20;;
69912;SDS011;57198;52.082;5.108;2023-11-18T11:07:47;10.27;;;4.63;;
69912;SDS011;57198;52.082;5.108;2023-11-18T11:10:16;5.80;;;3.13;;
69912;SDS011;57198;52.082;5.108;2023-11-18T11:12:51;7.80;;;3.95;;
69912;SDS011;57198;52.082;5.108;2023-11-18T11:15:22;7.93;;;4.18;;
69912;SDS011;57198;52.082;5.108;2023-11-18T11:17:53;4.30;;;3.97;;
69912;SDS011;57198;52.082;5.108;2023-11-18T11:20:22;11.23;;;3.30;;
69912;SDS011;57198;52.082;5.108;2023-11-18T11:23:08;4.30;;;3.90;;
69912;SDS011;57198;52.082;5.108;2023-11-18T11:25:41;5.32;;;4.03;;
69912;SDS011;57198;52.082;5.108;2023-11-18T11:28:22;9.20;;;3.97;;
69912;SDS011;57198;52.082;5.108;2023-11-18T11:30:58;4.35;;;3.95;;
69912;SDS011;57198;52.082;5.108;2023-11-18T11:33:41;7.88;;;3.72;;
69912;SDS011;57198;52.082;5.108;2023-11-18T11:36:11;4.20;;;3.70;;
69912;SDS011;57198;52.082;5.108;2023-11-18T11:38:39;7.72;;;4.40;;
69912;SDS011;57198;52.082;5.108;2023-11-18T11:41:06;7.72;;;4.38;;
69912;SDS011;57198;52.082;5.108;2023-11-18T11:43:35;5.55;;;3.45;;
69912;SDS011;57198;52.082;5.108;2023-11-18T11:46:03;9.27;;;3.30;;
69912;SDS011;57198;52.082;5.108;2023-11-18T11:48:37;9.77;;;3.65;;
69912;SDS011;57198;52.082;5.108;2023-11-18T11:51:07;8.35;;;3.65;;
69912;SDS011;57198;52.082;5.108;2023-11-18T11:53:42;7.15;;;3.90;;
69912;SDS011;57198;52.082;5.108;2023-11-18T11:56:12;4.95;;;3.88;;
69912;SDS011;57198;52.082;5.108;2023-11-18T11:58:41;6.15;;;3.45;;
69912;SDS011;57198;52.082;5.108;2023-11-18T12:01:26;6.47;;;3.67;;
69912;SDS011;57198;52.082;5.108;2023-11-18T12:04:01;4.90;;;3.72;;
69912;SDS011;57198;52.082;5.108;2023-11-18T12:06:33;3.58;;;3.10;;
69912;SDS011;57198;52.082;5.108;2023-11-18T12:09:05;11.07;;;3.47;;
69912;SDS011;57198;52.082;5.108;2023-11-18T12:11:34;5.15;;;3.17;;
69912;SDS011;57198;52.082;5.108;2023-11-18T12:14:08;6.75;;;3.20;;
69912;SDS011;57198;52.082;5.108;2023-11-18T12:19:30;3.72;;;3.40;;
69912;SDS011;57198;52.082;5.108;2023-11-18T12:22:21;3.83;;;3.50;;
69912;SDS011;57198;52.082;5.108;2023-11-18T12:35:49;6.07;;;3.90;;
69912;SDS011;57198;52.082;5.108;2023-11-18T12:40:54;7.35;;;3.80;;
69912;SDS011;57198;52.082;5.108;2023-11-18T12:43:47;4.68;;;3.10;;
69912;SDS011;57198;52.082;5.108;2023-11-18T12:48:56;3.80;;;2.97;;
69912;SDS011;57198;52.082;5.108;2023-11-18T12:51:26;3.65;;;2.92;;
69912;SDS011;57198;52.082;5.108;2023-11-18T12:53:53;6.15;;;3.20;;
69912;SDS011;57198;52.082;5.108;2023-11-18T12:56:21;5.78;;;3.58;;
69912;SDS011;57198;52.082;5.108;2023-11-18T12:58:51;5.47;;;3.47;;
69912;SDS011;57198;52.082;5.108;2023-11-18T13:01:20;6.18;;;3.05;;
69912;SDS011;57198;52.082;5.108;2023-11-18T13:03:47;3.90;;;2.97;;
69912;SDS011;57198;52.082;5.108;2023-11-18T13:06:15;4.80;;;2.95;;
69912;SDS011;57198;52.082;5.108;2023-11-18T13:08:43;4.15;;;3.15;;
69912;SDS011;57198;52.082;5.108;2023-11-18T13:11:10;3.78;;;2.67;;
69912;SDS011;57198;52.082;5.108;2023-11-18T13:13:43;2.83;;;2.63;;
69912;SDS011;57198;52.082;5.108;2023-11-18T13:16:10;4.60;;;2.90;;
69912;SDS011;57198;52.082;5.108;2023-11-18T13:18:44;4.57;;;2.60;;
69912;SDS011;57198;52.082;5.108;2023-11-18T13:21:16;4.43;;;3.45;;
69912;SDS011;57198;52.082;5.108;2023-11-18T13:23:47;4.75;;;2.67;;
69912;SDS011;57198;52.082;5.108;2023-11-18T13:26:16;3.08;;;2.83;;
69912;SDS011;57198;52.082;5.108;2023-11-18T13:28:48;2.55;;;2.35;;
69912;SDS011;57198;52.082;5.108;2023-11-18T13:31:17;4.30;;;2.78;;
69912;SDS011;57198;52.082;5.108;2023-11-18T13:33:46;2.75;;;2.45;;
69912;SDS011;57198;52.082;5.108;2023-11-18T13:36:17;3.67;;;2.20;;
69912;SDS011;57198;52.082;5.108;2023-11-18T13:38:47;4.10;;;2.60;;
69912;SDS011;57198;52.082;5.108;2023-11-18T13:41:28;2.80;;;2.28;;
69912;SDS011;57198;52.082;5.108;2023-11-18T13:43:55;3.50;;;2.80;;
69912;SDS011;57198;52.082;5.108;2023-11-18T13:46:23;2.38;;;2.22;;
69912;SDS011;57198;52.082;5.108;2023-11-18T13:48:54;2.70;;;2.03;;
69912;SDS011;57198;52.082;5.108;2023-11-18T13:51:21;2.30;;;2.20;;
69912;SDS011;57198;52.082;5.108;2023-11-18T13:53:49;3.63;;;2.67;;
69912;SDS011;57198;52.082;5.108;2023-11-18T13:56:19;2.40;;;2.20;;
69912;SDS011;57198;52.082;5.108;2023-11-18T13:58:48;3.05;;;2.20;;
69912;SDS011;57198;52.082;5.108;2023-11-18T14:01:16;1.85;;;1.75;;
69912;SDS011;57198;52.082;5.108;2023-11-18T14:03:43;2.13;;;2.03;;
69912;SDS011;57198;52.082;5.108;2023-11-18T14:06:14;1.70;;;1.60;;
69912;SDS011;57198;52.082;5.108;2023-11-18T14:08:43;2.00;;;1.90;;
69912;SDS011;57198;52.082;5.108;2023-11-18T14:11:11;2.50;;;2.30;;
69912;SDS011;57198;52.082;5.108;2023-11-18T14:13:43;2.00;;;1.90;;
69912;SDS011;57198;52.082;5.108;2023-11-18T14:16:11;2.17;;;2.05;;
69912;SDS011;57198;52.082;5.108;2023-11-18T14:18:39;3.70;;;3.38;;
69912;SDS011;57198;52.082;5.108;2023-11-18T14:21:08;2.03;;;1.90;;
69912;SDS011;57198;52.082;5.108;2023-11-18T14:23:36;4.32;;;2.22;;
69912;SDS011;57198;52.082;5.108;2023-11-18T14:26:06;3.10;;;1.98;;
69912;SDS011;57198;52.082;5.108;2023-11-18T14:28:34;1.88;;;1.77;;
69912;SDS011;57198;52.082;5.108;2023-11-18T14:31:02;2.22;;;2.13;;
69912;SDS011;57198;52.082;5.108;2023-11-18T14:33:34;2.20;;;1.88;;
69912;SDS011;57198;52.082;5.108;2023-11-18T14:36:01;2.05;;;1.75;;
69912;SDS011;57198;52.082;5.108;2023-11-18T14:38:32;1.90;;;1.80;;
69912;SDS011;57198;52.082;5.108;2023-11-18T14:41:00;1.85;;;1.75;;
69912;SDS011;57198;52.082;5.108;2023-11-18T14:43:29;2.05;;;1.95;;
69912;SDS011;57198;52.082;5.108;2023-11-18T14:45:56;2.45;;;2.35;;
69912;SDS011;57198;52.082;5.108;2023-11-18T14:48:24;2.05;;;1.88;;
69912;SDS011;57198;52.082;5.108;2023-11-18T14:50:51;1.33;;;1.30;;
69912;SDS011;57198;52.082;5.108;2023-11-18T14:53:19;2.67;;;2.20;;
69912;SDS011;57198;52.082;5.108;2023-11-18T14:55:46;2.60;;;2.50;;
69912;SDS011;57198;52.082;5.108;2023-11-18T14:58:13;2.95;;;2.20;;
69912;SDS011;57198;52.082;5.108;2023-11-18T15:00:41;2.25;;;2.15;;
69912;SDS011;57198;52.082;5.108;2023-11-18T15:03:09;2.75;;;2.40;;
69912;SDS011;57198;52.082;5.108;2023-11-18T15:05:36;2.05;;;1.95;;
69912;SDS011;57198;52.082;5.108;2023-11-18T15:08:05;2.38;;;2.17;;
69912;SDS011;57198;52.082;5.108;2023-11-18T15:10:36;2.00;;;1.90;;
69912;SDS011;57198;52.082;5.108;2023-11-18T15:13:03;2.20;;;2.10;;
69912;SDS011;57198;52.082;5.108;2023-11-18T15:15:31;2.08;;;1.98;;
69912;SDS011;57198;52.082;5.108;2023-11-18T15:18:06;3.30;;;1.90;;
69912;SDS011;57198;52.082;5.108;2023-11-18T15:20:41;1.92;;;1.73;;
69912;SDS011;57198;52.082;5.108;2023-11-18T15:23:14;2.35;;;2.25;;